Terminal Aerodrome Forecast
Issued by NWS

Home | Current Version | Previous Version | Text Only | Print | Product List | Glossary On
Versions: 1 2 3 4 5 6 7 8 9 10 11 12 13 14 15
000
FTUS45 KTFX 251144
TAFLWT
TAF
KLWT 251144Z 2512/2612 24015G22KT P6SM SCT200 WS020/28045KT
     FM251800 26023G34KT P6SM SCT040 BKN080
     FM260200 24015G25KT P6SM SCT030 OVC060 WS020/26045KT=

USA.gov is the U.S. government's official web portal to all federal, state and local government web resources and services.